Time;durP1;ratioP1;P1;durP2;ratioP2;P2;SDS_P1;SDS_P2;PMS_P1;PMS_P2;Temp;Humidity;BMP_temperature;BMP_pressure;BME280_temperature;BME280_humidity;BME280_pressure;Samples;Min_cycle;Max_cycle;Signal;HPM_P1;HPM_P2
2022/03/21 00:01:27;;;;;;;0.70;0.70;;;3.10;47.80;;;1.91;34.14;96612.41;5015617;28;20254;-83
2022/03/21 00:03:55;;;;;;;0.70;0.70;;;3.10;47.80;;;1.88;34.33;96610.00;5013672;28;20708;-83
2022/03/21 00:06:22;;;;;;;0.70;0.70;;;3.10;47.90;;;1.85;34.39;96608.44;5031659;28;20215;-83
2022/03/21 00:08:49;;;;;;;0.65;0.65;;;3.10;47.90;;;1.88;34.20;96613.44;5003992;28;20714;-84
2022/03/21 00:11:18;;;;;;;0.50;0.50;;;3.10;48.00;;;1.89;34.29;96619.44;5012026;28;20271;-84
2022/03/21 00:13:46;;;;;;;0.73;0.73;;;3.10;48.00;;;1.89;34.38;96624.63;5006184;28;20288;-83
2022/03/21 00:16:13;;;;;;;0.80;0.80;;;3.10;48.00;;;1.85;34.42;96620.56;5030769;28;20199;-84
2022/03/21 00:18:40;;;;;;;0.70;0.70;;;3.10;48.00;;;1.85;34.32;96626.56;5014790;28;20212;-83
2022/03/21 00:21:07;;;;;;;0.73;0.73;;;3.10;48.00;;;1.79;34.36;96620.94;5032829;28;20654;-84
2022/03/21 00:23:35;;;;;;;0.80;0.80;;;3.10;47.90;;;1.70;34.14;96612.00;5018556;28;20236;-83
2022/03/21 00:26:03;;;;;;;0.70;0.70;;;3.10;47.90;;;1.72;34.16;96621.34;5035828;28;20292;-83
2022/03/21 00:28:30;;;;;;;0.70;0.70;;;3.00;47.80;;;1.69;34.15;96623.28;5020065;28;20269;-84
2022/03/21 00:30:59;;;;;;;0.80;0.80;;;3.00;47.80;;;1.65;34.28;96632.97;5015369;28;20221;-84
2022/03/21 00:33:26;;;;;;;0.70;0.70;;;3.00;47.90;;;1.57;34.25;96624.84;4999908;28;20229;-83
2022/03/21 00:35:54;;;;;;;0.90;0.90;;;2.90;47.70;;;1.57;34.32;96628.25;4991894;28;20196;-83
2022/03/21 00:38:21;;;;;;;0.60;0.60;;;3.00;47.80;;;1.53;34.49;96619.03;5035403;28;20234;-83
2022/03/21 00:40:49;;;;;;;0.60;0.60;;;2.90;47.90;;;1.50;34.43;96624.41;5027683;28;20229;-83
2022/03/21 00:43:24;;;;;;;0.80;0.80;;;2.90;47.90;;;1.49;34.40;96616.72;5032077;28;20212;-84
2022/03/21 00:45:55;;;;;;;0.80;0.80;;;2.90;48.10;;;1.47;34.45;96619.41;5015487;28;20192;-82
2022/03/21 00:48:25;;;;;;;0.70;0.70;;;2.80;48.10;;;1.43;34.71;96616.19;4999324;28;20225;-83
2022/03/21 00:50:54;;;;;;;0.80;0.80;;;2.80;48.30;;;1.43;34.72;96607.59;5047605;28;20683;-83
2022/03/21 00:53:22;;;;;;;0.70;0.70;;;2.80;48.50;;;1.43;35.03;96605.84;5017754;28;20439;-83
2022/03/21 00:55:51;;;;;;;0.80;0.80;;;2.70;48.40;;;1.42;34.77;96596.41;5016260;28;20272;-84
2022/03/21 00:58:19;;;;;;;0.70;0.70;;;2.70;48.60;;;1.41;34.73;96584.41;5013385;28;20228;-84
2022/03/21 01:00:47;;;;;;;0.80;0.80;;;2.70;48.60;;;1.42;34.83;96593.81;5018267;28;20666;-84
2022/03/21 01:03:15;;;;;;;0.60;0.60;;;2.70;48.70;;;1.42;34.74;96587.84;4992492;28;20256;-83
2022/03/21 01:05:42;;;;;;;0.70;0.70;;;2.70;48.80;;;1.40;34.80;96584.50;5048011;28;20245;-84
2022/03/21 01:08:09;;;;;;;0.70;0.70;;;2.70;48.80;;;1.41;34.87;96593.94;5002574;28;20193;-82
2022/03/21 01:10:36;;;;;;;0.60;0.60;;;2.70;48.90;;;1.40;34.67;96593.09;5010476;28;20217;-83
2022/03/21 01:13:03;;;;;;;0.70;0.70;;;2.70;49.00;;;1.35;34.82;96574.44;5017232;28;20221;-83
2022/03/21 01:15:31;;;;;;;0.60;0.60;;;2.70;48.80;;;1.35;34.69;96576.19;5024124;28;20221;-83
2022/03/21 01:17:59;;;;;;;0.80;0.80;;;2.60;48.80;;;1.33;34.24;96576.31;4982642;28;20201;-84
2022/03/21 01:20:27;;;;;;;0.70;0.70;;;2.70;48.80;;;1.32;34.71;96578.97;5014905;28;20221;-83
2022/03/21 01:22:55;;;;;;;0.60;0.60;;;2.60;48.90;;;1.30;35.02;96581.66;5014499;28;20220;-83
2022/03/21 01:25:22;;;;;;;0.60;0.60;;;2.60;48.80;;;1.31;34.92;96566.94;5001613;28;20216;-83
2022/03/21 01:27:49;;;;;;;0.70;0.70;;;2.60;48.80;;;1.28;35.03;96557.63;5018264;28;20281;-83
2022/03/21 01:30:17;;;;;;;0.80;0.80;;;2.60;48.90;;;1.26;35.02;96547.41;5016117;28;20209;-83
2022/03/21 01:32:46;;;;;;;0.60;0.60;;;2.60;50.00;;;1.26;35.05;96546.59;5016100;28;20197;-83
2022/03/21 01:35:16;;;;;;;0.60;0.60;;;2.60;48.80;;;1.27;35.13;96543.91;5034775;28;20217;-83
2022/03/21 01:37:45;;;;;;;0.70;0.70;;;2.60;48.90;;;1.25;35.19;96537.97;5018124;28;20197;-83
2022/03/21 01:40:14;;;;;;;0.80;0.80;;;2.60;48.80;;;1.26;35.13;96547.41;5014103;28;20316;-83
2022/03/21 01:42:46;;;;;;;0.80;0.80;;;2.50;48.70;;;1.25;34.96;96542.34;5014724;28;20204;-83
2022/03/21 01:45:17;;;;;;;0.60;0.60;;;2.50;48.80;;;1.22;34.92;96530.44;5018663;28;20591;-83
2022/03/21 01:47:46;;;;;;;0.70;0.70;;;2.50;50.00;;;1.20;34.91;96532.25;5017601;28;20287;-83
2022/03/21 01:50:15;;;;;;;0.80;0.80;;;2.50;48.80;;;1.19;35.21;96525.44;5007617;28;20316;-83
2022/03/21 01:52:44;;;;;;;0.60;0.60;;;2.50;48.70;;;1.15;35.37;96523.13;4982205;28;20204;-83
2022/03/21 01:58:00;;;;;;;0.60;0.60;;;2.50;48.80;;;1.16;35.26;96517.03;5034497;28;20185;-84
2022/03/21 02:00:27;;;;;;;0.90;0.90;;;2.50;48.70;;;1.15;35.55;96523.97;5017552;28;20311;-84
2022/03/21 02:02:54;;;;;;;0.80;0.80;;;2.50;48.70;;;1.14;35.35;96516.31;5017471;28;20219;-84
2022/03/21 02:05:22;;;;;;;0.65;0.65;;;2.40;48.70;;;1.14;35.44;96518.91;5000692;28;20217;-83
2022/03/21 02:07:50;;;;;;;0.70;0.70;;;2.40;48.70;;;1.11;35.23;96509.56;4997728;28;20217;-83
2022/03/21 02:10:18;;;;;;;0.70;0.70;;;2.40;48.70;;;1.09;35.48;96517.41;5013675;28;20308;-84
2022/03/21 02:12:46;;;;;;;0.70;0.70;;;2.40;48.70;;;1.09;35.43;96525.16;4992629;28;20734;-83
2022/03/21 02:15:13;;;;;;;0.60;0.60;;;2.40;48.70;;;1.01;35.30;96511.88;4999505;28;20220;-83
2022/03/21 02:17:43;;;;;;;0.50;0.50;;;2.40;48.70;;;1.05;35.24;96520.25;5033556;28;20659;-83
2022/03/21 02:20:12;;;;;;;0.80;0.80;;;2.40;48.70;;;1.02;35.18;96523.06;5017478;28;20232;-83
2022/03/21 02:23:22;;;;;;;0.70;0.70;;;2.30;48.60;;;0.91;35.40;96511.59;5020366;28;20235;-84
2022/03/21 02:25:50;;;;;;;0.68;0.68;;;2.30;48.80;;;0.97;35.26;96523.31;5013635;28;20208;-84
2022/03/21 02:28:18;;;;;;;0.80;0.80;;;2.30;48.60;;;0.94;35.37;96526.06;4997546;28;20296;-84
2022/03/21 02:30:48;;;;;;;0.60;0.60;;;2.30;48.60;;;0.91;35.31;96523.69;4998299;28;20256;-83
2022/03/21 02:33:17;;;;;;;0.77;0.77;;;2.20;48.50;;;0.90;35.32;96522.03;5029541;28;20232;-83
2022/03/21 02:35:48;;;;;;;0.70;0.70;;;2.30;48.60;;;0.91;35.31;96526.28;4997045;28;20193;-83
2022/03/21 02:38:20;;;;;;;0.80;0.80;;;2.20;48.50;;;0.85;35.44;96519.72;5019270;28;20203;-81
2022/03/21 02:40:47;;;;;;;0.60;0.60;;;2.20;48.50;;;0.86;35.38;96517.97;5015961;28;20224;-83
2022/03/21 02:43:14;;;;;;;0.60;0.60;;;2.20;48.50;;;0.82;35.53;96519.91;5024628;28;20233;-83
2022/03/21 02:45:42;;;;;;;0.70;0.70;;;2.10;48.50;;;0.80;35.47;96521.75;5012618;28;20272;-83
2022/03/21 02:48:13;;;;;;;0.70;0.70;;;2.20;48.60;;;0.79;35.37;96535.56;4996715;28;20259;-83
2022/03/21 02:50:59;;;;;;;0.70;0.70;;;2.10;48.70;;;0.77;35.72;96537.44;5013033;28;20233;-83
2022/03/21 02:53:30;;;;;;;0.70;0.70;;;2.10;48.60;;;0.72;35.40;96527.38;4997722;28;20228;-83
2022/03/21 02:55:57;;;;;;;0.70;0.70;;;2.10;48.60;;;0.72;35.43;96527.38;4996995;28;20280;-84
2022/03/21 02:58:25;;;;;;;0.70;0.70;;;2.10;48.50;;;0.68;35.20;96536.22;5012959;28;20243;-83
2022/03/21 03:00:52;;;;;;;0.70;0.70;;;2.10;48.70;;;0.59;35.27;96524.69;5014459;28;20193;-82
2022/03/21 03:03:19;;;;;;;0.60;0.60;;;2.10;48.50;;;0.64;35.49;96540.72;5028957;28;20200;-83
2022/03/21 03:05:47;;;;;;;0.70;0.70;;;2.00;48.50;;;0.62;35.56;96542.59;5012801;28;20204;-84
2022/03/21 03:08:14;;;;;;;0.70;0.70;;;2.00;48.70;;;0.60;35.40;96547.00;5016416;28;20200;-83
2022/03/21 03:10:41;;;;;;;0.70;0.70;;;2.00;48.70;;;0.57;35.53;96541.19;5024021;28;20223;-83
2022/03/21 03:13:09;;;;;;;0.63;0.63;;;2.00;48.90;;;0.55;35.68;96537.84;5024114;28;20235;-84
2022/03/21 03:15:36;;;;;;;0.70;0.70;;;1.90;48.90;;;0.59;35.90;96534.19;5013051;28;20679;-82
2022/03/21 03:18:04;;;;;;;0.70;0.70;;;1.90;49.00;;;0.47;35.82;96527.97;5012706;28;20248;-83
2022/03/21 03:20:31;;;;;;;0.70;0.70;;;1.90;49.00;;;0.45;35.90;96522.91;4996329;28;20201;-83
2022/03/21 03:23:01;;;;;;;0.70;0.70;;;1.90;49.20;;;0.59;35.68;96545.34;4996198;28;20253;-83
2022/03/21 03:25:28;;;;;;;0.70;0.70;;;1.90;49.30;;;0.57;35.77;96547.16;4996167;28;20198;-83
2022/03/21 03:27:55;;;;;;;0.70;0.70;;;1.90;49.10;;;0.57;35.97;96548.94;5029259;28;20644;-84
2022/03/21 03:30:22;;;;;;;0.90;0.90;;;1.90;49.20;;;0.59;35.64;96544.50;5028968;28;20731;-83
2022/03/21 03:32:50;;;;;;;0.70;0.70;;;1.90;49.20;;;0.58;35.70;96540.25;5023537;28;20194;-84
2022/03/21 03:35:19;;;;;;;0.70;0.70;;;1.90;49.30;;;0.58;35.57;96548.81;4996517;28;20627;-83
2022/03/21 03:37:48;;;;;;;0.70;0.70;;;1.90;49.30;;;0.55;35.56;96545.59;4996314;28;20201;-84
2022/03/21 03:40:15;;;;;;;0.80;0.80;;;1.90;49.20;;;0.53;35.66;96552.63;4996268;28;20279;-84
2022/03/21 03:42:42;;;;;;;0.70;0.70;;;1.90;49.30;;;0.46;35.80;96541.81;5014931;28;20255;-83
2022/03/21 03:45:09;;;;;;;0.70;0.70;;;1.90;49.30;;;0.52;36.01;96548.38;5015375;28;20224;-83
2022/03/21 03:47:37;;;;;;;0.80;0.80;;;1.80;49.20;;;0.52;35.87;96553.53;5011428;28;20200;-84
2022/03/21 03:50:04;;;;;;;0.68;0.68;;;1.80;49.30;;;0.46;35.83;96540.06;4995962;28;20214;-83
2022/03/21 03:52:31;;;;;;;0.60;0.60;;;1.80;49.20;;;0.47;35.77;96546.88;4995882;28;20221;-84
2022/03/21 03:54:59;;;;;;;0.60;0.60;;;1.80;49.20;;;0.45;35.72;96546.16;5008296;28;20267;-83
2022/03/21 03:57:26;;;;;;;0.70;0.70;;;1.80;49.20;;;0.43;35.67;96547.16;5014628;28;20224;-82
2022/03/21 03:59:54;;;;;;;0.80;0.80;;;1.80;49.20;;;0.38;35.88;96542.25;5015681;28;20690;-83
2022/03/21 04:02:21;;;;;;;0.60;0.60;;;1.80;49.30;;;0.38;35.77;96544.00;5008265;28;20280;-84
2022/03/21 04:04:48;;;;;;;0.70;0.70;;;1.70;49.20;;;0.37;35.69;96550.91;4996200;28;20316;-84
2022/03/21 04:07:15;;;;;;;0.70;0.70;;;1.70;49.30;;;0.31;35.75;96544.34;4996183;28;20198;-83
2022/03/21 04:09:42;;;;;;;0.70;0.70;;;1.70;49.30;;;0.28;35.51;96536.78;5018107;28;20227;-83
2022/03/21 04:12:10;;;;;;;0.70;0.70;;;1.70;49.20;;;0.26;35.55;96548.94;5030232;28;20235;-83
2022/03/21 04:14:37;;;;;;;0.80;0.80;;;1.70;49.20;;;0.25;35.54;96547.28;5032008;28;20208;-83
2022/03/21 04:17:04;;;;;;;0.70;0.70;;;1.60;49.20;;;0.24;35.67;96548.19;5032296;28;20247;-83
2022/03/21 04:19:31;;;;;;;0.70;0.70;;;1.60;49.30;;;0.11;36.03;96529.16;5015982;28;20259;-83
2022/03/21 04:21:59;;;;;;;0.70;0.70;;;1.60;49.40;;;0.18;35.92;96552.88;5009953;28;20369;-83
2022/03/21 04:24:26;;;;;;;0.70;0.70;;;1.60;49.50;;;0.17;35.86;96543.47;5015628;28;20224;-83
2022/03/21 04:26:53;;;;;;;0.80;0.80;;;1.60;49.50;;;0.23;35.95;96556.88;5031873;28;20280;-84
2022/03/21 04:29:20;;;;;;;0.70;0.70;;;1.60;49.50;;;0.25;35.94;96555.00;5015698;28;20216;-84
2022/03/21 04:31:47;;;;;;;0.70;0.70;;;1.60;49.60;;;0.23;36.04;96556.88;5018733;28;20225;-83
2022/03/21 04:34:14;;;;;;;0.80;0.80;;;1.60;49.70;;;0.25;36.11;96554.19;5015252;28;20694;-83
2022/03/21 04:36:42;;;;;;;0.80;0.80;;;1.60;49.60;;;0.24;35.80;96547.38;5015246;28;20296;-82
2022/03/21 04:39:10;;;;;;;0.80;0.80;;;1.60;49.60;;;0.23;36.17;96548.28;5025966;28;20244;-84
2022/03/21 04:41:37;;;;;;;0.70;0.70;;;1.60;49.80;;;0.26;35.93;96551.53;5006130;28;20205;-83
2022/03/21 04:44:04;;;;;;;0.70;0.70;;;1.60;49.70;;;0.24;35.98;96540.44;5012679;28;20272;-83
2022/03/21 04:46:31;;;;;;;0.60;0.60;;;1.60;49.80;;;0.23;36.11;96546.56;4995405;28;20296;-84
2022/03/21 04:48:58;;;;;;;0.80;0.80;;;1.60;49.80;;;0.15;36.00;96538.41;4995552;28;20284;-83
2022/03/21 04:51:25;;;;;;;0.70;0.70;;;1.60;49.80;;;0.17;35.99;96541.72;5018167;28;20687;-83
2022/03/21 04:53:52;;;;;;;0.70;0.70;;;1.60;49.80;;;0.14;36.00;96544.47;4998643;28;20224;-84
2022/03/21 04:56:19;;;;;;;0.80;0.80;;;1.50;49.70;;;0.12;36.15;96549.75;5013340;28;20755;-83
2022/03/21 04:58:46;;;;;;;0.70;0.70;;;1.50;49.70;;;0.06;36.18;96544.06;4995464;28;20311;-84
2022/03/21 05:01:14;;;;;;;0.80;0.80;;;1.50;49.70;;;0.02;36.28;96542.59;5014835;28;20211;-83
2022/03/21 05:03:42;;;;;;;0.52;0.52;;;1.40;49.70;;;-0.05;36.15;96535.19;5011574;28;20233;-84
2022/03/21 05:06:09;;;;;;;0.70;0.70;;;1.40;49.90;;;0.05;36.10;96558.72;4979594;28;20202;-84
2022/03/21 05:08:36;;;;;;;0.80;0.80;;;1.40;49.90;;;0.05;36.17;96556.16;4996824;28;20235;-83
2022/03/21 05:11:03;;;;;;;0.70;0.70;;;1.40;50.00;;;0.07;36.20;96561.22;5006875;28;20217;-84
2022/03/21 05:13:30;;;;;;;0.75;0.75;;;1.40;50.00;;;0.09;36.63;96559.41;5014962;28;20248;-84
2022/03/21 05:15:57;;;;;;;0.70;0.70;;;1.40;50.20;;;0.12;36.47;96559.22;5017535;28;20231;-83
2022/03/21 05:18:24;;;;;;;0.70;0.70;;;1.40;50.20;;;0.09;36.41;96555.06;5018547;28;20606;-84
2022/03/21 05:20:52;;;;;;;0.80;0.80;;;1.50;50.30;;;0.08;36.24;96555.97;5018297;28;20197;-83
2022/03/21 05:31:35;;;;;;;0.60;0.60;;;1.50;50.40;;;0.33;36.64;96575.25;5014799;28;20252;-84
2022/03/21 05:36:48;;;;;;;0.60;0.60;;;1.50;50.40;;;0.41;36.58;96572.22;5015055;28;20255;-84
2022/03/21 05:39:15;;;;;;;0.70;0.70;;;1.60;50.80;;;0.45;36.49;96565.94;5013253;28;20252;-83
2022/03/21 05:41:42;;;;;;;0.80;0.80;;;1.60;50.50;;;0.52;36.46;96580.16;4998221;28;20698;-83
2022/03/21 05:44:11;;;;;;;0.80;0.80;;;1.60;50.50;;;0.52;36.39;96575.00;5000305;28;20276;-83
2022/03/21 05:46:38;;;;;;;0.70;0.70;;;1.70;50.50;;;0.63;36.53;96582.97;5002855;28;20663;-83
2022/03/21 05:49:05;;;;;;;0.50;0.50;;;1.70;50.50;;;0.67;36.32;96593.94;5014003;28;20223;-84
2022/03/21 05:51:35;;;;;;;0.70;0.70;;;1.80;50.60;;;0.76;36.35;96597.75;4998258;28;20243;-85
2022/03/21 05:54:09;;;;;;;0.80;0.80;;;1.80;50.60;;;0.79;36.17;96592.41;5015170;28;20217;-83
2022/03/21 05:56:41;;;;;;;0.68;0.68;;;1.80;50.50;;;0.88;36.37;96597.03;5034224;28;20185;-84
2022/03/21 06:01:55;;;;;;;0.80;0.80;;;1.90;50.50;;;1.06;36.38;96602.03;5036571;28;20228;-84
2022/03/21 06:04:23;;;;;;;0.80;0.80;;;2.00;50.60;;;1.14;36.06;96604.19;5034314;28;20303;-83
2022/03/21 06:06:51;;;;;;;0.70;0.70;;;2.00;51.70;;;1.16;36.23;96589.41;5017886;28;20208;-84
2022/03/21 06:09:18;;;;;;;0.60;0.60;;;2.10;50.50;;;1.30;35.89;96604.91;5017953;28;20221;-83
2022/03/21 06:11:48;;;;;;;0.70;0.70;;;2.20;50.60;;;1.37;36.14;96607.97;5017513;28;20271;-83
2022/03/21 06:14:18;;;;;;;0.70;0.70;;;2.20;50.50;;;1.48;36.22;96605.56;5018164;28;20243;-84
2022/03/21 06:16:47;;;;;;;0.70;0.70;;;2.30;50.60;;;1.55;35.86;96612.03;5018251;28;20208;-83
2022/03/21 06:19:15;;;;;;;0.68;0.68;;;2.40;50.60;;;1.67;36.11;96615.63;5017010;28;20227;-84
2022/03/21 06:21:42;;;;;;;0.68;0.68;;;2.50;50.60;;;1.79;35.87;96618.38;5017111;28;20209;-84
2022/03/21 06:24:12;;;;;;;0.80;0.80;;;2.50;50.60;;;1.89;36.11;96609.09;5034044;28;20628;-84
2022/03/21 06:26:41;;;;;;;0.70;0.70;;;2.70;50.80;;;2.02;36.05;96619.50;5017925;28;20303;-84
2022/03/21 06:29:08;;;;;;;0.70;0.70;;;2.80;50.90;;;2.14;36.24;96620.50;5017529;28;20260;-84
2022/03/21 06:31:36;;;;;;;0.80;0.80;;;2.80;50.80;;;2.28;35.92;96619.63;5017084;28;20748;-84
2022/03/21 06:34:03;;;;;;;0.70;0.70;;;3.00;50.90;;;2.40;36.11;96626.59;5017160;28;20267;-84
2022/03/21 06:36:30;;;;;;;0.60;0.60;;;3.10;50.90;;;2.53;36.07;96622.28;5033502;28;20226;-84
2022/03/21 06:38:57;;;;;;;0.80;0.80;;;3.20;50.90;;;2.65;36.13;96627.59;5033477;28;20217;-84
2022/03/21 06:41:25;;;;;;;0.70;0.70;;;3.20;50.80;;;2.77;35.77;96632.00;5016792;28;20228;-85
2022/03/21 06:43:52;;;;;;;0.70;0.70;;;3.40;50.80;;;2.94;35.83;96640.41;5017265;28;20318;-84
2022/03/21 06:46:19;;;;;;;0.70;0.70;;;3.50;50.70;;;3.01;35.64;96628.69;5016978;28;20219;-84
2022/03/21 06:48:46;;;;;;;0.70;0.70;;;3.60;50.70;;;3.19;36.00;96645.63;5016799;28;20244;-84
2022/03/21 06:51:13;;;;;;;0.75;0.75;;;3.70;50.70;;;3.30;35.72;96637.13;5049657;28;20682;-85
2022/03/21 06:53:41;;;;;;;0.60;0.60;;;3.80;50.50;;;3.45;35.90;96642.19;5016952;28;20221;-84
2022/03/21 06:56:08;;;;;;;0.70;0.70;;;4.00;50.40;;;3.46;35.43;96628.31;5017101;28;20201;-85
2022/03/21 06:58:35;;;;;;;0.80;0.80;;;4.10;50.30;;;3.64;35.46;96639.19;5016617;28;20212;-84
2022/03/21 07:01:03;;;;;;;0.70;0.70;;;4.20;50.30;;;3.82;35.43;96650.88;5016916;28;20189;-84
2022/03/21 07:03:32;;;;;;;0.80;0.80;;;4.30;50.40;;;3.90;35.26;96657.31;5016500;28;20266;-85
2022/03/21 07:05:59;;;;;;;0.60;0.60;;;4.40;50.50;;;4.01;35.06;96653.00;5016764;28;20655;-84
2022/03/21 07:08:30;;;;;;;0.70;0.70;;;4.50;50.60;;;4.11;35.02;96650.63;5016730;28;20223;-84
2022/03/21 07:10:57;;;;;;;0.60;0.60;;;4.70;50.80;;;4.26;34.88;96658.22;5000749;28;20203;-84
2022/03/21 07:13:27;;;;;;;0.70;0.70;;;4.80;50.90;;;4.33;34.90;96652.50;5006588;28;20228;-84
2022/03/21 07:15:56;;;;;;;0.60;0.60;;;4.90;51.00;;;4.45;34.85;96655.97;5018368;28;20240;-85
2022/03/21 07:18:23;;;;;;;0.60;0.60;;;5.00;50.90;;;4.59;35.03;96655.00;5020425;28;20256;-85
2022/03/21 07:20:50;;;;;;;0.80;0.80;;;5.10;50.80;;;4.70;34.78;96655.97;4980902;28;20209;-84
2022/03/21 07:23:17;;;;;;;0.80;0.80;;;5.20;50.40;;;4.80;34.66;96655.19;4999215;28;20196;-83
2022/03/21 07:25:45;;;;;;;0.80;0.80;;;5.30;50.40;;;4.87;34.32;96658.19;5016028;28;20208;-84
2022/03/21 07:28:13;;;;;;;0.60;0.60;;;5.40;50.10;;;5.00;34.20;96658.09;5014470;28;20180;-84
2022/03/21 07:30:40;;;;;;;0.60;0.60;;;5.50;50.10;;;5.10;34.46;96653.88;5015679;28;20196;-84
2022/03/21 07:33:07;;;;;;;0.70;0.70;;;5.60;50.00;;;5.21;34.49;96663.47;5016115;28;20256;-84
2022/03/21 07:35:36;;;;;;;0.60;0.60;;;5.70;50.00;;;5.29;34.05;96650.72;5006646;28;20201;-86
2022/03/21 07:38:03;;;;;;;0.60;0.60;;;5.70;49.90;;;5.39;33.81;96657.81;4998453;28;20227;-86
2022/03/21 07:40:31;;;;;;;0.70;0.70;;;5.90;49.90;;;5.44;33.92;96653.94;4996509;28;20244;-84
2022/03/21 07:42:58;;;;;;;0.60;0.60;;;5.90;49.50;;;5.58;33.91;96663.28;5029208;28;20209;-86
2022/03/21 07:48:11;;;;;;;0.60;0.60;;;6.10;49.30;;;5.71;33.58;96665.78;5032590;28;20252;-85
2022/03/21 07:50:40;;;;;;;0.50;0.50;;;6.20;49.10;;;5.78;33.70;96668.75;5016270;28;20200;-85
2022/03/21 07:53:09;;;;;;;0.60;0.60;;;6.30;49.20;;;5.80;33.54;96666.84;5015348;28;20224;-85
2022/03/21 07:55:36;;;;;;;0.57;0.57;;;6.30;49.00;;;5.89;32.97;96673.13;5014768;28;20731;-87
2022/03/21 07:58:04;;;;;;;0.60;0.60;;;6.40;48.80;;;5.92;33.22;96672.91;5000431;28;20201;-86
2022/03/21 08:00:32;;;;;;;0.60;0.60;;;6.50;48.80;;;5.99;33.04;96679.28;5004655;28;20197;-85
2022/03/21 08:02:59;;;;;;;0.52;0.52;;;6.50;48.60;;;6.02;33.06;96680.84;5009604;28;20204;-85
2022/03/21 08:05:30;;;;;;;0.60;0.60;;;6.60;48.50;;;6.05;32.97;96675.38;5013567;28;20247;-86
2022/03/21 08:07:57;;;;;;;0.60;0.60;;;6.60;48.50;;;6.09;33.06;96672.44;4998411;28;20205;-86
2022/03/21 08:10:24;;;;;;;0.70;0.70;;;6.60;48.60;;;6.17;33.13;96682.25;4995866;28;20275;-86
2022/03/21 08:12:52;;;;;;;0.63;0.63;;;6.70;48.70;;;6.21;32.89;96672.41;5009691;28;20220;-86
2022/03/21 08:15:19;;;;;;;0.60;0.60;;;6.70;48.40;;;6.25;32.58;96679.06;5011665;28;20236;-86
2022/03/21 08:18:03;;;;;;;0.60;0.60;;;6.80;48.40;;;6.34;32.69;96695.72;5005790;28;20202;-86
2022/03/21 08:20:35;;;;;;;0.60;0.60;;;6.80;48.30;;;6.30;32.88;96676.91;5022352;28;20220;-86
2022/03/21 08:23:08;;;;;;;0.50;0.50;;;6.90;48.50;;;6.45;32.90;96695.72;5005250;28;20228;-85
2022/03/21 08:25:37;;;;;;;0.57;0.57;;;6.90;48.20;;;6.50;32.87;96696.16;4998908;28;20193;-85
2022/03/21 08:28:09;;;;;;;0.70;0.70;;;7.00;48.30;;;6.56;32.79;96693.06;5015390;28;20653;-85
2022/03/21 08:30:38;;;;;;;0.50;0.50;;;7.00;48.10;;;6.63;32.69;96689.97;5012535;28;20294;-86
2022/03/21 08:33:08;;;;;;;0.60;0.60;;;7.10;48.30;;;6.67;32.62;96687.00;5015938;28;20248;-84
2022/03/21 08:35:38;;;;;;;0.50;0.50;;;7.10;48.20;;;6.73;32.49;96696.94;5030965;28;20189;-85
2022/03/21 08:38:09;;;;;;;0.60;0.60;;;7.20;48.00;;;6.80;32.47;96694.66;5015384;28;20637;-85
2022/03/21 08:40:37;;;;;;;0.80;0.80;;;7.20;48.20;;;6.88;32.72;96696.66;5012911;28;20228;-86
2022/03/21 08:43:05;;;;;;;0.52;0.52;;;7.30;48.20;;;6.96;32.44;96699.47;5000459;28;20722;-86
2022/03/21 08:45:34;;;;;;;0.70;0.70;;;7.40;48.30;;;7.03;32.68;96694.56;5000594;28;20193;-86
2022/03/21 08:48:01;;;;;;;0.50;0.50;;;7.50;48.30;;;7.08;32.52;96682.00;5015160;28;20240;-85
2022/03/21 08:50:29;;;;;;;0.50;0.50;;;7.50;48.20;;;7.19;32.47;96700.19;5002027;28;20201;-86
2022/03/21 08:52:58;;;;;;;0.52;0.52;;;7.60;48.30;;;7.27;32.69;96696.13;5015024;28;20213;-85
2022/03/21 08:55:26;;;;;;;0.70;0.70;;;7.60;48.20;;;7.34;32.39;96694.66;5027143;28;20217;-86
2022/03/21 08:57:53;;;;;;;0.55;0.55;;;7.70;48.10;;;7.42;32.33;96694.88;4996057;28;20274;-84
2022/03/21 09:00:20;;;;;;;0.60;0.60;;;7.80;48.20;;;7.49;32.17;96695.97;5018640;28;20702;-86
2022/03/21 09:02:49;;;;;;;0.63;0.63;;;7.80;48.00;;;7.51;32.45;96682.81;5018579;28;20239;-85
2022/03/21 09:05:17;;;;;;;0.50;0.50;;;7.90;48.10;;;7.57;32.33;96679.69;5015720;28;20341;-84
2022/03/21 09:07:44;;;;;;;0.50;0.50;;;8.00;48.00;;;7.68;32.26;96684.00;5015972;28;20198;-85
2022/03/21 09:10:14;;;;;;;0.50;0.50;;;8.00;48.00;;;7.74;32.18;96688.72;5002084;28;20255;-86
2022/03/21 09:12:44;;;;;;;0.70;0.70;;;8.10;47.90;;;7.82;32.03;96695.88;5028823;28;20691;-84
2022/03/21 09:15:12;;;;;;;0.52;0.52;;;8.10;47.90;;;7.89;31.87;96689.19;5034360;28;20282;-85
2022/03/21 09:17:39;;;;;;;0.50;0.50;;;8.20;47.80;;;7.96;32.06;96671.22;5017488;28;20231;-85
2022/03/21 09:20:07;;;;;;;0.70;0.70;;;8.30;48.00;;;7.98;32.22;96662.28;4999098;28;20724;-84
2022/03/21 09:22:35;;;;;;;0.60;0.60;;;8.40;48.00;;;8.17;31.88;96666.72;4991960;28;20205;-85
2022/03/21 09:25:03;;;;;;;0.50;0.50;;;8.40;48.00;;;8.26;31.93;96672.94;5003955;28;20221;-85
2022/03/21 09:27:30;;;;;;;0.50;0.50;;;8.50;47.90;;;8.37;31.49;96658.94;5019004;28;20259;-85
2022/03/21 09:29:58;;;;;;;0.50;0.50;;;8.60;47.80;;;8.46;31.70;96663.41;5033584;28;20228;-85
2022/03/21 09:32:25;;;;;;;0.80;0.80;;;8.70;47.80;;;8.58;31.55;96655.41;5015937;28;20278;-85
2022/03/21 09:34:53;;;;;;;0.50;0.50;;;8.80;47.70;;;8.66;31.38;96666.03;5034822;28;20208;-86
2022/03/21 09:37:20;;;;;;;0.50;0.50;;;8.90;47.30;;;8.72;30.80;96662.06;5034556;28;20193;-85
2022/03/21 09:39:47;;;;;;;0.50;0.50;;;9.00;46.80;;;8.84;31.13;96660.13;5015495;28;20307;-85
2022/03/21 09:42:15;;;;;;;0.60;0.60;;;9.20;46.90;;;8.90;31.36;96657.78;5017192;28;20247;-87
2022/03/21 09:44:42;;;;;;;0.63;0.63;;;9.10;46.90;;;9.05;31.33;96654.75;5018171;28;20243;-86
2022/03/21 09:49:58;;;;;;;0.60;0.60;;;9.30;46.60;;;9.25;30.83;96672.09;5033759;28;20228;-85
2022/03/21 09:52:27;;;;;;;0.60;0.60;;;9.40;46.70;;;9.34;30.74;96670.44;4998070;28;20230;-85
2022/03/21 09:54:54;;;;;;;0.50;0.50;;;9.50;45.90;;;9.40;30.74;96658.56;5012382;28;20240;-86
2022/03/21 09:57:21;;;;;;;0.60;0.60;;;9.60;46.50;;;9.36;30.63;96639.69;5008810;28;20205;-84
2022/03/21 09:59:50;;;;;;;0.60;0.60;;;9.70;46.40;;;9.53;30.44;96659.09;4999999;28;20300;-85
2022/03/21 10:02:18;;;;;;;0.50;0.50;;;9.80;46.30;;;9.69;30.56;96663.75;5014091;28;20228;-84
2022/03/21 10:04:50;;;;;;;0.60;0.60;;;9.80;46.40;;;9.78;30.62;96659.44;5003644;28;20217;-85
2022/03/21 10:07:27;;;;;;;0.70;0.70;;;9.90;46.30;;;9.87;30.06;96645.44;5000740;28;20216;-86
2022/03/21 10:10:12;;;;;;;0.80;0.80;;;10.00;44.10;;;9.94;29.92;96658.81;5010244;28;20209;-85
2022/03/21 10:12:40;;;;;;;0.60;0.60;;;10.10;43.80;;;10.01;30.13;96672.16;5018698;28;20233;-85
2022/03/21 10:15:10;;;;;;;0.65;0.65;;;10.20;44.10;;;10.06;30.10;96655.03;4995114;28;20563;-86
2022/03/21 10:17:38;;;;;;;0.60;0.60;;;10.30;43.90;;;10.18;29.87;96654.81;5016719;28;20192;-84
2022/03/21 10:20:08;;;;;;;0.60;0.60;;;10.40;43.70;;;10.21;29.80;96651.91;5009166;28;20308;-85
2022/03/21 10:22:43;;;;;;;0.70;0.70;;;10.40;43.70;;;10.32;29.85;96658.78;5010512;28;20659;-85
2022/03/21 10:25:17;;;;;;;0.60;0.60;;;10.50;43.80;;;10.38;29.84;96661.66;5017221;28;20212;-85
2022/03/21 10:27:48;;;;;;;0.60;0.60;;;10.60;43.60;;;10.40;29.51;96645.78;5032197;28;20193;-85
2022/03/21 10:30:24;;;;;;;0.70;0.70;;;10.60;43.30;;;10.48;29.59;96650.28;5009600;28;20671;-85
2022/03/21 10:32:58;;;;;;;0.50;0.50;;;10.70;43.40;;;10.55;29.53;96649.53;5009397;28;20216;-85
2022/03/21 10:35:31;;;;;;;0.70;0.70;;;10.70;43.60;;;10.64;29.60;96639.94;5014527;28;20580;-85
2022/03/21 10:38:04;;;;;;;0.60;0.60;;;10.80;43.40;;;10.70;29.16;96651.66;5005578;28;20193;-85
2022/03/21 10:40:44;;;;;;;0.60;0.60;;;10.90;43.00;;;10.66;29.08;96631.94;5007849;28;20274;-85
2022/03/21 10:43:18;;;;;;;0.60;0.60;;;10.90;43.10;;;10.80;29.44;96656.81;4992827;28;20205;-85
2022/03/21 10:45:51;;;;;;;0.60;0.60;;;11.00;43.20;;;10.87;29.15;96647.38;5009747;28;20189;-85
2022/03/21 10:48:30;;;;;;;0.60;0.60;;;11.10;43.20;;;10.98;29.13;96647.13;5001815;28;20199;-85
2022/03/21 10:51:00;;;;;;;0.70;0.70;;;11.10;43.00;;;11.05;29.11;96648.19;5016777;28;20192;-85
2022/03/21 10:53:39;;;;;;;0.60;0.60;;;11.20;43.30;;;11.16;29.32;96644.50;5000503;28;20674;-85
2022/03/21 10:56:09;;;;;;;0.50;0.50;;;11.30;43.20;;;11.23;28.73;96657.00;5029899;28;20255;-85
2022/03/21 10:58:41;;;;;;;0.50;0.50;;;11.30;42.90;;;11.29;29.04;96645.91;5014630;28;20226;-86
2022/03/21 11:01:19;;;;;;;0.70;0.70;;;11.40;43.10;;;11.33;28.65;96648.06;5024462;28;20188;-85